Create Custom Reports and Graphics: Custom Report

Soquel - CalFire

Current Conditions

11/29/20 4:45 PM (-08:00)
Updated Every 15 Minutes
Temp 57.4 °F   1.5
RH 41 %   4
Dew Pt 33.7 °F   0.7
Wind Spd 0.4 mph
Wind Dir NE | 55 °
Wind Gust 3.1 mph   2.2
Latest Rain 0.00 In
Daily Rain 0.00 In
Leaf Wet 0.0 mins
Daily Min Temp 45.8 °F   3.0
Daily Max Temp 70.0 °F   1.3

Daily Summary

Last 30 Days

Daily Data | America/Los_Angeles
as of 11/29/20 4:52 PM PST
Date Daily Max Temp (°F) Daily Min Temp (°F) Daily Rain (In) Seasonal Rainfall (In) Daily Solar Rad (Cal/cm2) Daily ETo (in) Wind Spd (mph) Daily Max Wind (mph) Max Wind Dir (°) Dew Pt (°F) Max RH (%) Min RH (%) Daily Leaf Wet Hrs (hrs) Soil Temp (°F) Soil Moist (%) Fuel Moisture (%) Max Fuel Moisture (%) Min Fuel Moisture (%) Bat Volt Min Day (V)
11/28/20 68.7 42.8 0.00 3.94 283 0.063 1.1 6.0 W | 266 28.5 63 19 0.0 58.8 22.0 12 16 1 12.3
11/27/20 66.5 41.0 0.00 3.94 284 0.062 1.3 5.6 WSW | 255 27.0 60 16 0.0 59.3 22.1 13 17 3 12.4
11/26/20 59.3 43.3 0.00 3.94 288 0.059 2.9 17.4 NNW | 342 25.4 65 22 0.0 59.7 22.3 16 20 9 12.4
11/25/20 58.6 43.1 0.00 3.94 277 0.060 1.4 10.6 NE | 39 38.5 92 47 4.9 60.0 22.5 19 25 11 12.4
11/24/20 66.7 44.7 0.00 3.94 284 0.064 1.2 8.4 NNE | 33 37.4 82 27 0.0 60.4 22.6 17 23 4 12.4
11/23/20 62.8 43.5 0.00 3.94 284 0.063 1.0 8.5 S | 182 41.2 90 42 4.9 60.8 22.8 17 22 9 12.4
11/22/20 66.8 44.2 0.00 3.94 283 0.063 1.1 7.7 NNE | 33 30.9 70 24 0.0 61.2 22.9 15 19 4 12.4
11/21/20 66.8 46.3 0.00 3.94 223 0.048 1.2 7.8 N | 349 29.4 68 18 0.0 61.6 23.2 16 19 9 12.4
11/20/20 65.8 45.8 0.00 3.94 234 0.052 1.8 9.2 NNE | 25 30.0 76 19 0.0 61.9 23.5 22 32 8 12.4
11/19/20 59.0 41.9 0.01 3.94 287 0.062 1.8 9.3 NE | 45 42.9 96 42 10.3 62.2 24.0 44 61 23 12.3
11/18/20 56.6 44.6 1.26 3.93 114 0.028 1.4 11.0 WNW | 299 50.7 95 94 24.0 62.4 24.5 56 60 49 12.3
11/17/20 65.9 50.5 2.24 2.67 53 0.014 1.7 14.0 WSW | 247 45.8 95 23 12.1 62.7 13.5 30 56 12 12.3
11/16/20 80.9 53.0 0.00 0.43 304 0.078 1.3 7.2 SW | 219 37.2 64 15 0.0 63.0 11.4 12 20 0 12.4
11/15/20 72.9 44.6 0.00 0.43 301 0.072 1.3 6.5 N | 354 36.5 83 21 0.7 63.4 11.4 21 34 2 12.4
11/14/20 64.5 41.0 0.02 0.43 319 0.074 1.1 6.0 NW | 304 44.5 95 57 17.5 63.8 11.6 39 55 16 12.3
11/13/20 59.5 42.3 0.14 0.41 174 0.039 0.9 8.2 SW | 223 41.0 94 42 8.1 64.3 11.4 28 54 13 12.4
11/12/20 63.9 43.6 0.00 0.27 299 0.069 1.2 6.8 W | 267 40.4 86 41 2.5 64.8 11.3 18 26 7 12.4
11/11/20 62.1 42.8 0.00 0.27 194 0.044 0.8 5.3 W | 279 42.5 91 52 7.7 65.3 11.4 19 25 13 12.4
11/10/20 61.3 38.3 0.00 0.27 309 0.067 1.3 8.3 NW | 317 29.4 67 26 0.0 65.9 11.4 18 24 9 12.4
11/9/20 57.0 33.9 0.01 0.27 306 0.062 1.7 9.8 E | 81 26.3 93 20 4.1 66.4 11.6 31 48 16 12.4
11/8/20 53.9 34.1 0.19 0.26 230 0.046 2.4 15.2 SSW | 211 33.7 95 40 8.0 66.7 10.9 28 48 13 12.3
11/7/20 59.6 40.2 0.04 0.07 244 0.052 1.2 9.9 NNE | 32 38.4 94 36 9.5 66.9 10.6 26 38 13 12.4
11/6/20 64.3 43.9 0.01 0.03 298 0.065 1.7 11.6 SSW | 199 38.8 89 33 1.5 67.0 10.7 10 22 4 12.3
11/5/20 87.5 61.5 0.00 0.02 302 0.083 1.2 5.9 NE | 34 43.8 56 23 0.0 67.1 10.7 7 11 0 12.3
11/4/20 82.6 56.9 0.00 0.02 323 0.087 1.4 8.4 N | 354 43.7 64 24 0.0 67.3 10.6 6 10 0 12.3
11/3/20 85.4 57.0 0.00 0.02 327 0.085 1.2 6.8 SW | 236 30.6 51 8 0.0 67.5 10.7 6 9 0 12.3
11/2/20 87.0 58.4 0.00 0.02 323 0.084 1.3 6.0 SSW | 208 28.9 55 10 0.0 67.6 10.7 5 8 0 12.3
11/1/20 91.1 63.4 0.00 0.02 326 0.088 1.4 6.4 NNW | 333 27.8 30 9 0.0 67.9 10.7 5 8 0 12.3
10/31/20 87.3 57.3 0.00 0.02 345 0.092 1.4 6.1 W | 274 30.4 39 13 0.0 68.2 10.7 6 10 0 12.3
10/30/20 81.1 55.4 0.00 0.02 341 0.089 1.2 6.0 WSW | 245 34.6 45 17 0.0 68.6 10.7 7 10 0 12.4
Max 91.1 63.4 2.24 - 345 0.092 2.9 17.4 - 50.7 96 94 24.0 68.6 24.5 56 61 49 12.4
Avg - - - - - - 1.4 - - 35.9 - - - 64.1 15.5 19 28 8 -
Min 53.9 33.9 0.00 - 53 0.014 0.8 5.3 - 25.4 30 8 0.0 58.8 10.6 5 8 0 12.3